Time;durP1;ratioP1;P1;durP2;ratioP2;P2;SDS_P1;SDS_P2;PMS_P1;PMS_P2;Temp;Humidity;BMP_temperature;BMP_pressure;BME280_temperature;BME280_humidity;BME280_pressure;Samples;Min_cycle;Max_cycle;Signal;HPM_P1;HPM_P2
2023/09/02 00:00:24;;;;;;;;;;;;;;;;;;4972000;28;20028;-90
2023/09/02 00:02:50;;;;;;;;;;;;;;;;;;4981736;28;19918;-89
2023/09/02 00:05:16;;;;;;;;;;;;;;;;;;4972113;28;19918;-89
2023/09/02 00:07:42;;;;;;;;;;;;;;;;;;4978320;28;20338;-89
2023/09/02 00:10:08;;;;;;;;;;;;;;;;;;4978583;28;19968;-88
2023/09/02 00:12:34;;;;;;;;;;;;;;;;;;4971463;28;19918;-90
2023/09/02 00:15:00;;;;;;;;;;;;;;;;;;4973750;28;19980;-89
2023/09/02 00:17:26;;;;;;;;;;;;;;;;;;4972765;28;19921;-88
2023/09/02 00:19:52;;;;;;;;;;;;;;;;;;4977241;28;19917;-89
2023/09/02 00:22:18;;;;;;;;;;;;;;;;;;4977096;28;19969;-90
2023/09/02 00:24:44;;;;;;;;;;;;;;;;;;4971003;28;20190;-88
2023/09/02 00:27:10;;;;;;;;;;;;;;;;;;4969052;28;20010;-88
2023/09/02 00:29:36;;;;;;;;;;;;;;;;;;4968513;28;19943;-88
2023/09/02 00:32:02;;;;;;;;;;;;;;;;;;4973867;28;19914;-89
2023/09/02 00:34:28;;;;;;;;;;;;;;;;;;4972301;28;19922;-88
2023/09/02 00:36:58;;;;;;;;;;;;;;;;;;4973240;28;19914;-88
2023/09/02 00:39:24;;;;;;;;;;;;;;;;;;4974571;28;19922;-88
2023/09/02 00:41:50;;;;;;;;;;;;;;;;;;4975120;28;20368;-89
2023/09/02 00:44:16;;;;;;;;;;;;;;;;;;4973713;28;19918;-88
2023/09/02 00:46:49;;;;;;;;;;;;;;;;;;4979303;28;20547;-89
2023/09/02 00:49:14;;;;;;;;;;;;;;;;;;4975458;28;19922;-88
2023/09/02 00:51:40;;;;;;;;;;;;;;;;;;4973046;28;19925;-88
2023/09/02 00:54:09;;;;;;;;;;;;;;;;;;4972519;28;19913;-90
2023/09/02 00:56:36;;;;;;;;;;;;;;;;;;4971570;28;19918;-89
2023/09/02 00:59:02;;;;;;;;;;;;;;;;;;4977498;28;20435;-86
2023/09/02 01:01:28;;;;;;;;;;;;;;;;;;4967201;28;20401;-88
2023/09/02 01:03:54;;;;;;;;;;;;;;;;;;4976898;28;19964;-88
2023/09/02 01:06:19;;;;;;;;;;;;;;;;;;4980547;28;19954;-95
2023/09/02 01:08:45;;;;;;;;;;;;;;;;;;4972654;28;19929;-94
2023/09/02 01:11:11;;;;;;;;;;;;;;;;;;4972780;28;20492;-92
2023/09/02 01:13:37;;;;;;;;;;;;;;;;;;4969894;28;19922;-94
2023/09/02 01:16:03;;;;;;;;;;;;;;;;;;4973460;28;19951;-90
2023/09/02 01:18:29;;;;;;;;;;;;;;;;;;4976790;28;19917;-89
2023/09/02 01:20:55;;;;;;;;;;;;;;;;;;4971221;28;19932;-90
2023/09/02 01:23:21;;;;;;;;;;;;;;;;;;4976273;28;19922;-89
2023/09/02 01:25:47;;;;;;;;;;;;;;;;;;4974616;28;19966;-89
2023/09/02 01:28:14;;;;;;;;;;;;;;;;;;4971834;28;19918;-89
2023/09/02 01:30:40;;;;;;;;;;;;;;;;;;4971103;28;20421;-91
2023/09/02 01:33:06;;;;;;;;;;;;;;;;;;4970467;28;20120;-89
2023/09/02 01:35:32;;;;;;;;;;;;;;;;;;4976557;28;19924;-90
2023/09/02 01:37:58;;;;;;;;;;;;;;;;;;4972652;28;20165;-88
2023/09/02 01:40:25;;;;;;;;;;;;;;;;;;4969132;28;19921;-90
2023/09/02 01:42:51;;;;;;;;;;;;;;;;;;4978820;28;20146;-89
2023/09/02 01:45:17;;;;;;;;;;;;;;;;;;4969878;28;19918;-90
2023/09/02 01:47:43;;;;;;;;;;;;;;;;;;4986141;28;19914;-89
2023/09/02 01:50:09;;;;;;;;;;;;;;;;;;4973566;28;20206;-90
2023/09/02 01:52:35;;;;;;;;;;;;;;;;;;4976871;28;19967;-89
2023/09/02 01:55:01;;;;;;;;;;;;;;;;;;4971800;28;19914;-89
2023/09/02 01:57:26;;;;;;;;;;;;;;;;;;4975672;28;20318;-89
2023/09/02 01:59:52;;;;;;;;;;;;;;;;;;4975397;28;19923;-89
2023/09/02 02:02:18;;;;;;;;;;;;;;;;;;4963141;28;19921;-89
2023/09/02 02:04:44;;;;;;;;;;;;;;;;;;4966969;28;19924;-89
2023/09/02 02:07:10;;;;;;;;;;;;;;;;;;4970518;28;19928;-89
2023/09/02 02:09:36;;;;;;;;;;;;;;;;;;4966868;28;19914;-89
2023/09/02 02:12:02;;;;;;;;;;;;;;;;;;4962896;28;19973;-89
2023/09/02 02:14:31;;;;;;;;;;;;;;;;;;4980607;28;19999;-89
2023/09/02 02:16:57;;;;;;;;;;;;;;;;;;4974088;28;20174;-90
2023/09/02 02:19:23;;;;;;;;;;;;;;;;;;4991169;28;20420;-89
2023/09/02 02:21:49;;;;;;;;;;;;;;;;;;4980453;28;19952;-89
2023/09/02 02:24:15;;;;;;;;;;;;;;;;;;4969713;28;19951;-93
2023/09/02 02:26:41;;;;;;;;;;;;;;;;;;4971836;28;19910;-89
2023/09/02 02:29:07;;;;;;;;;;;;;;;;;;4964457;28;20417;-90
2023/09/02 02:31:34;;;;;;;;;;;;;;;;;;4993119;28;20432;-90
2023/09/02 02:34:00;;;;;;;;;;;;;;;;;;4975850;28;19922;-89
2023/09/02 02:36:26;;;;;;;;;;;;;;;;;;4974535;28;19921;-90
2023/09/02 02:38:52;;;;;;;;;;;;;;;;;;4978401;28;19939;-90
2023/09/02 02:41:17;;;;;;;;;;;;;;;;;;4972409;28;19922;-90
2023/09/02 02:43:44;;;;;;;;;;;;;;;;;;4990855;28;19963;-90
2023/09/02 02:46:10;;;;;;;;;;;;;;;;;;4979998;28;20372;-89
2023/09/02 02:48:35;;;;;;;;;;;;;;;;;;4981879;28;20064;-90
2023/09/02 02:51:01;;;;;;;;;;;;;;;;;;4971430;28;19922;-90
2023/09/02 02:53:27;;;;;;;;;;;;;;;;;;4980912;28;20381;-90
2023/09/02 02:55:53;;;;;;;;;;;;;;;;;;4974247;28;19921;-90
2023/09/02 02:58:19;;;;;;;;;;;;;;;;;;4970285;28;20050;-90
2023/09/02 03:00:49;;;;;;;;;;;;;;;;;;4976357;28;19929;-90
2023/09/02 03:03:15;;;;;;;;;;;;;;;;;;4979923;28;19929;-91
2023/09/02 03:05:42;;;;;;;;;;;;;;;;;;4977129;28;20332;-90
2023/09/02 03:08:08;;;;;;;;;;;;;;;;;;4981138;28;20150;-91
2023/09/02 03:10:35;;;;;;;;;;;;;;;;;;4981667;28;20432;-90
2023/09/02 03:13:01;;;;;;;;;;;;;;;;;;4974344;28;19949;-90
2023/09/02 03:15:27;;;;;;;;;;;;;;;;;;4982044;28;19964;-90
2023/09/02 03:17:53;;;;;;;;;;;;;;;;;;4987241;28;20263;-89
2023/09/02 03:20:19;;;;;;;;;;;;;;;;;;4969910;28;19961;-90
2023/09/02 03:22:45;;;;;;;;;;;;;;;;;;4976661;28;19983;-90
2023/09/02 03:25:11;;;;;;;;;;;;;;;;;;4974529;28;19915;-88
2023/09/02 03:27:36;;;;;;;;;;;;;;;;;;4991155;28;19917;-88
2023/09/02 03:30:03;;;;;;;;;;;;;;;;;;4974403;28;19918;-89
2023/09/02 03:32:30;;;;;;;;;;;;;;;;;;4974292;28;19946;-89
2023/09/02 03:34:55;;;;;;;;;;;;;;;;;;4981536;28;19961;-94
2023/09/02 03:37:21;;;;;;;;;;;;;;;;;;4972556;28;19968;-95
2023/09/02 03:39:48;;;;;;;;;;;;;;;;;;4980436;28;19932;-95
2023/09/02 03:42:14;;;;;;;;;;;;;;;;;;4974263;28;20246;-94
2023/09/02 03:44:39;;;;;;;;;;;;;;;;;;4975321;28;19917;-94
2023/09/02 03:47:05;;;;;;;;;;;;;;;;;;4977945;28;19925;-95
2023/09/02 03:49:31;;;;;;;;;;;;;;;;;;4980944;28;19926;-94
2023/09/02 03:51:57;;;;;;;;;;;;;;;;;;4983443;28;19913;-94
2023/09/02 03:54:29;;;;;;;;;;;;;;;;;;4974779;28;19922;-93
2023/09/02 03:56:55;;;;;;;;;;;;;;;;;;4978773;28;20297;-94
2023/09/02 03:59:21;;;;;;;;;;;;;;;;;;4985362;28;19918;-94
2023/09/02 04:01:48;;;;;;;;;;;;;;;;;;4989543;28;19913;-96
2023/09/02 04:04:14;;;;;;;;;;;;;;;;;;4975132;28;19972;-94
2023/09/02 04:06:39;;;;;;;;;;;;;;;;;;4993870;28;19959;-94
2023/09/02 04:09:07;;;;;;;;;;;;;;;;;;4975591;28;20425;-94
2023/09/02 04:11:33;;;;;;;;;;;;;;;;;;4976407;28;19922;-94
2023/09/02 04:14:00;;;;;;;;;;;;;;;;;;4971455;28;20006;-95
2023/09/02 04:16:26;;;;;;;;;;;;;;;;;;4981049;28;19914;-94
2023/09/02 04:18:52;;;;;;;;;;;;;;;;;;4977594;28;19973;-94
2023/09/02 04:21:18;;;;;;;;;;;;;;;;;;4974459;28;20025;-95
2023/09/02 04:23:44;;;;;;;;;;;;;;;;;;4979942;28;19987;-94
2023/09/02 04:26:10;;;;;;;;;;;;;;;;;;4979587;28;20627;-94
2023/09/02 04:28:36;;;;;;;;;;;;;;;;;;4974702;28;20374;-94
2023/09/02 04:31:02;;;;;;;;;;;;;;;;;;4974538;28;19916;-94
2023/09/02 04:33:28;;;;;;;;;;;;;;;;;;4970912;28;19923;-94
2023/09/02 04:35:54;;;;;;;;;;;;;;;;;;4984308;28;19967;-94
2023/09/02 04:38:20;;;;;;;;;;;;;;;;;;4971724;28;19914;-94
2023/09/02 04:40:46;;;;;;;;;;;;;;;;;;4976368;28;19917;-92
2023/09/02 04:43:12;;;;;;;;;;;;;;;;;;4972069;28;19930;-96
2023/09/02 04:45:39;;;;;;;;;;;;;;;;;;4973660;28;19999;-90
2023/09/02 04:48:05;;;;;;;;;;;;;;;;;;4974093;28;20092;-91
2023/09/02 04:50:31;;;;;;;;;;;;;;;;;;4983903;28;19922;-90
2023/09/02 04:52:57;;;;;;;;;;;;;;;;;;4992108;28;19924;-91
2023/09/02 04:55:24;;;;;;;;;;;;;;;;;;4988284;28;19925;-90
2023/09/02 04:57:50;;;;;;;;;;;;;;;;;;4993434;28;19917;-89
2023/09/02 05:00:16;;;;;;;;;;;;;;;;;;4996190;28;19948;-90
2023/09/02 05:02:42;;;;;;;;;;;;;;;;;;4993667;28;19944;-90
2023/09/02 05:05:08;;;;;;;;;;;;;;;;;;5010240;28;19918;-90
2023/09/02 05:07:34;;;;;;;;;;;;;;;;;;4993706;28;20277;-90
2023/09/02 05:10:00;;;;;;;;;;;;;;;;;;4998277;28;19940;-89
2023/09/02 05:12:27;;;;;;;;;;;;;;;;;;5008701;28;19925;-90
2023/09/02 05:14:53;;;;;;;;;;;;;;;;;;4986945;28;19914;-88
2023/09/02 05:17:19;;;;;;;;;;;;;;;;;;4993623;28;19924;-90
2023/09/02 05:19:44;;;;;;;;;;;;;;;;;;4993321;28;20438;-90
2023/09/02 05:22:10;;;;;;;;;;;;;;;;;;4991853;28;19925;-90
2023/09/02 05:24:36;;;;;;;;;;;;;;;;;;4994173;28;19918;-89
2023/09/02 05:27:02;;;;;;;;;;;;;;;;;;4996192;28;20935;-89
2023/09/02 05:29:28;;;;;;;;;;;;;;;;;;4989607;28;19914;-90
2023/09/02 05:31:54;;;;;;;;;;;;;;;;;;4992638;28;20489;-90
2023/09/02 05:34:20;;;;;;;;;;;;;;;;;;4991570;28;19918;-90
2023/09/02 05:36:46;;;;;;;;;;;;;;;;;;4991454;28;19914;-90
2023/09/02 05:39:12;;;;;;;;;;;;;;;;;;4994413;28;20489;-90
2023/09/02 05:41:39;;;;;;;;;;;;;;;;;;4988469;28;19913;-90
2023/09/02 05:44:05;;;;;;;;;;;;;;;;;;4994611;28;19924;-89
2023/09/02 05:46:30;;;;;;;;;;;;;;;;;;4992035;28;19918;-90
2023/09/02 05:48:56;;;;;;;;;;;;;;;;;;4991919;28;19924;-90
2023/09/02 05:51:22;;;;;;;;;;;;;;;;;;4973407;28;19926;-90
2023/09/02 05:53:48;;;;;;;;;;;;;;;;;;4970016;28;20461;-91
2023/09/02 05:56:17;;;;;;;;;;;;;;;;;;4967366;28;19917;-94
2023/09/02 05:58:43;;;;;;;;;;;;;;;;;;4975748;28;19914;-95
2023/09/02 06:01:09;;;;;;;;;;;;;;;;;;4973049;28;19925;-95
2023/09/02 06:03:35;;;;;;;;;;;;;;;;;;4972056;28;20407;-94
2023/09/02 06:06:01;;;;;;;;;;;;;;;;;;4977558;28;20001;-94
2023/09/02 06:08:27;;;;;;;;;;;;;;;;;;4973572;28;19919;-93
2023/09/02 06:10:53;;;;;;;;;;;;;;;;;;4974477;28;19956;-94
2023/09/02 06:13:19;;;;;;;;;;;;;;;;;;4974090;28;19991;-94
2023/09/02 06:15:45;;;;;;;;;;;;;;;;;;4972167;28;20420;-96
2023/09/02 06:18:11;;;;;;;;;;;;;;;;;;4979593;28;20013;-94
2023/09/02 06:20:37;;;;;;;;;;;;;;;;;;4965792;28;19918;-95
2023/09/02 06:23:12;;;;;;;;;;;;;;;;;;4976647;28;21867;-95
2023/09/02 06:25:38;;;;;;;;;;;;;;;;;;4978730;28;19969;-95
2023/09/02 06:28:04;;;;;;;;;;;;;;;;;;4974471;28;19968;-94
2023/09/02 06:30:30;;;;;;;;;;;;;;;;;;4974746;28;19926;-95
2023/09/02 06:32:56;;;;;;;;;;;;;;;;;;4968852;28;19928;-94
2023/09/02 06:35:22;;;;;;;;;;;;;;;;;;4968946;28;20024;-93
2023/09/02 06:37:47;;;;;;;;;;;;;;;;;;4980628;28;19968;-92
2023/09/02 06:40:13;;;;;;;;;;;;;;;;;;4973979;28;19922;-93
2023/09/02 06:42:39;;;;;;;;;;;;;;;;;;4981502;28;19924;-96
2023/09/02 06:45:05;;;;;;;;;;;;;;;;;;4983953;28;19924;-94
2023/09/02 06:47:38;;;;;;;;;;;;;;;;;;4975067;28;19957;-94
2023/09/02 06:50:04;;;;;;;;;;;;;;;;;;4981912;28;19921;-94
2023/09/02 06:52:30;;;;;;;;;;;;;;;;;;4979978;28;19920;-92
2023/09/02 06:54:56;;;;;;;;;;;;;;;;;;4974642;28;19965;-94
2023/09/02 06:57:22;;;;;;;;;;;;;;;;;;4972304;28;20408;-93
2023/09/02 06:59:48;;;;;;;;;;;;;;;;;;4985804;28;19918;-94
2023/09/02 07:02:14;;;;;;;;;;;;;;;;;;4989636;28;19945;-93
2023/09/02 07:04:40;;;;;;;;;;;;;;;;;;4985701;28;19923;-90
2023/09/02 07:07:05;;;;;;;;;;;;;;;;;;4975658;28;19918;-90
2023/09/02 07:09:31;;;;;;;;;;;;;;;;;;4974385;28;19914;-91
2023/09/02 07:11:57;;;;;;;;;;;;;;;;;;4970196;28;19914;-90
2023/09/02 07:14:23;;;;;;;;;;;;;;;;;;4971373;28;19977;-91
2023/09/02 07:16:49;;;;;;;;;;;;;;;;;;4969989;28;19914;-91
2023/09/02 07:19:15;;;;;;;;;;;;;;;;;;4973931;28;19925;-91
2023/09/02 07:21:41;;;;;;;;;;;;;;;;;;4972961;28;19914;-90
2023/09/02 07:24:09;;;;;;;;;;;;;;;;;;4973612;28;19925;-91
2023/09/02 07:26:36;;;;;;;;;;;;;;;;;;4977024;28;19929;-91
2023/09/02 07:29:01;;;;;;;;;;;;;;;;;;4973648;28;19979;-91
2023/09/02 07:31:27;;;;;;;;;;;;;;;;;;4989660;28;20012;-92
2023/09/02 07:33:53;;;;;;;;;;;;;;;;;;4974641;28;20083;-91
2023/09/02 07:36:19;;;;;;;;;;;;;;;;;;4976335;28;19921;-92
2023/09/02 07:38:45;;;;;;;;;;;;;;;;;;4972755;28;20008;-91
2023/09/02 07:41:11;;;;;;;;;;;;;;;;;;4975241;28;19970;-91
2023/09/02 07:43:37;;;;;;;;;;;;;;;;;;4975766;28;19933;-91
2023/09/02 07:46:03;;;;;;;;;;;;;;;;;;4975501;28;20373;-91
2023/09/02 07:48:29;;;;;;;;;;;;;;;;;;4979903;28;19957;-91
2023/09/02 07:50:55;;;;;;;;;;;;;;;;;;4981223;28;19929;-91
2023/09/02 07:53:21;;;;;;;;;;;;;;;;;;4971109;28;19914;-92
2023/09/02 07:55:47;;;;;;;;;;;;;;;;;;4979169;28;19960;-92
2023/09/02 07:58:14;;;;;;;;;;;;;;;;;;4974511;28;19918;-91
2023/09/02 08:00:42;;;;;;;;;;;;;;;;;;4978016;28;19933;-92
2023/09/02 08:03:08;;;;;;;;;;;;;;;;;;4976144;28;19917;-91
2023/09/02 08:05:34;;;;;;;;;;;;;;;;;;4979065;28;19918;-92
2023/09/02 08:08:00;;;;;;;;;;;;;;;;;;4979093;28;19980;-92
2023/09/02 08:10:26;;;;;;;;;;;;;;;;;;4972671;28;19922;-92
2023/09/02 08:12:52;;;;;;;;;;;;;;;;;;4978618;28;19917;-92
2023/09/02 08:15:27;;;;;;;;;;;;;;;;;;4976788;28;19914;-91
2023/09/02 08:17:53;;;;;;;;;;;;;;;;;;4976169;28;19998;-92
2023/09/02 08:20:19;;;;;;;;;;;;;;;;;;4983752;28;19946;-91
2023/09/02 08:22:45;;;;;;;;;;;;;;;;;;4974437;28;19914;-91
2023/09/02 08:25:11;;;;;;;;;;;;;;;;;;4978873;28;19925;-91
2023/09/02 08:27:37;;;;;;;;;;;;;;;;;;4987762;28;20314;-91
2023/09/02 08:30:04;;;;;;;;;;;;;;;;;;4972872;28;19921;-92
2023/09/02 08:32:30;;;;;;;;;;;;;;;;;;4992260;28;19918;-91
2023/09/02 08:34:56;;;;;;;;;;;;;;;;;;4980669;28;19971;-92
2023/09/02 08:37:21;;;;;;;;;;;;;;;;;;4968139;28;19922;-92
2023/09/02 08:39:47;;;;;;;;;;;;;;;;;;4992769;28;20302;-92
2023/09/02 08:42:13;;;;;;;;;;;;;;;;;;4971412;28;19914;-91
2023/09/02 08:44:39;;;;;;;;;;;;;;;;;;4970624;28;19922;-91
2023/09/02 08:47:05;;;;;;;;;;;;;;;;;;4975837;28;19972;-91
2023/09/02 08:49:31;;;;;;;;;;;;;;;;;;4969455;28;19918;-92
2023/09/02 08:51:57;;;;;;;;;;;;;;;;;;4982425;28;19933;-92
2023/09/02 08:54:23;;;;;;;;;;;;;;;;;;4977016;28;19914;-92
2023/09/02 08:56:49;;;;;;;;;;;;;;;;;;4973983;28;19913;-92
2023/09/02 08:59:15;;;;;;;;;;;;;;;;;;4975365;28;19918;-92
2023/09/02 09:04:28;;;;;;;;;;;;;;;;;;4967610;28;19972;-91
2023/09/02 09:06:54;;;;;;;;;;;;;;;;;;4998471;28;19921;-91
2023/09/02 09:09:20;;;;;;;;;;;;;;;;;;4972078;28;19918;-91
2023/09/02 09:11:46;;;;;;;;;;;;;;;;;;4972769;28;19922;-91
2023/09/02 09:14:12;;;;;;;;;;;;;;;;;;4969702;28;19952;-92
2023/09/02 09:16:38;;;;;;;;;;;;;;;;;;4976743;28;19914;-92
2023/09/02 09:19:10;;;;;;;;;;;;;;;;;;4969718;28;19924;-91
2023/09/02 09:21:36;;;;;;;;;;;;;;;;;;4977539;28;19922;-91
2023/09/02 09:24:02;;;;;;;;;;;;;;;;;;4979166;28;19910;-92
2023/09/02 09:26:28;;;;;;;;;;;;;;;;;;4970768;28;19914;-92
2023/09/02 09:28:54;;;;;;;;;;;;;;;;;;4973435;28;19917;-91
2023/09/02 09:31:28;;;;;;;;;;;;;;;;;;4987601;28;20255;-93
2023/09/02 09:33:54;;;;;;;;;;;;;;;;;;4977655;28;19917;-92
2023/09/02 09:36:21;;;;;;;;;;;;;;;;;;4975578;28;20370;-92
2023/09/02 09:38:47;;;;;;;;;;;;;;;;;;4978376;28;19917;-92
2023/09/02 09:41:13;;;;;;;;;;;;;;;;;;4974985;28;20435;-92
2023/09/02 09:43:45;;;;;;;;;;;;;;;;;;4972697;28;19922;-92
2023/09/02 09:46:17;;;;;;;;;;;;;;;;;;4972340;28;20392;-92
2023/09/02 09:49:00;;;;;;;;;;;;;;;;;;4962276;28;19918;-92
2023/09/02 09:51:26;;;;;;;;;;;;;;;;;;4978052;28;20385;-91
2023/09/02 09:54:02;;;;;;;;;;;;;;;;;;4974889;28;19921;-92
2023/09/02 09:56:28;;;;;;;;;;;;;;;;;;4972450;28;19965;-92
2023/09/02 09:58:55;;;;;;;;;;;;;;;;;;4976311;28;19914;-91
2023/09/02 10:01:21;;;;;;;;;;;;;;;;;;4968793;28;19926;-92
2023/09/02 10:03:47;;;;;;;;;;;;;;;;;;4978035;28;19918;-91
2023/09/02 10:06:22;;;;;;;;;;;;;;;;;;4981827;28;19917;-92
2023/09/02 10:08:48;;;;;;;;;;;;;;;;;;4977540;28;19924;-92
2023/09/02 10:11:14;;;;;;;;;;;;;;;;;;4977196;28;19913;-92
2023/09/02 10:13:40;;;;;;;;;;;;;;;;;;4973368;28;19929;-92
2023/09/02 10:16:05;;;;;;;;;;;;;;;;;;4973096;28;19995;-92
2023/09/02 10:18:31;;;;;;;;;;;;;;;;;;4978457;28;19921;-92
2023/09/02 10:20:58;;;;;;;;;;;;;;;;;;4970213;28;19921;-92
2023/09/02 10:23:30;;;;;;;;;;;;;;;;;;4974689;28;20491;-91
2023/09/02 10:25:56;;;;;;;;;;;;;;;;;;4983388;28;20006;-95
2023/09/02 10:28:22;;;;;;;;;;;;;;;;;;4987966;28;19925;-96
2023/09/02 10:30:51;;;;;;;;;;;;;;;;;;5008646;28;19913;-95
2023/09/02 10:33:17;;;;;;;;;;;;;;;;;;4988118;28;19971;-93
2023/09/02 10:35:44;;;;;;;;;;;;;;;;;;4985502;28;20520;-91
2023/09/02 10:38:10;;;;;;;;;;;;;;;;;;4974177;28;19992;-91
2023/09/02 10:40:36;;;;;;;;;;;;;;;;;;4972057;28;19922;-92
2023/09/02 10:43:02;;;;;;;;;;;;;;;;;;4976849;28;19917;-90
2023/09/02 10:45:27;;;;;;;;;;;;;;;;;;4978046;28;19919;-92
2023/09/02 10:48:02;;;;;;;;;;;;;;;;;;4973683;28;19920;-91
2023/09/02 10:53:16;;;;;;;;;;;;;;;;;;4892094;29;20367;-91
2023/09/02 10:55:42;;;;;;;;;;;;;;;;;;4890760;29;19915;-91
2023/09/02 10:58:08;;;;;;;;;;;;;;;;;;4942128;28;20004;-90
2023/09/02 11:00:34;;;;;;;;;;;;;;;;;;4978730;28;19968;-91
2023/09/02 11:03:00;;;;;;;;;;;;;;;;;;4976440;28;19960;-92
2023/09/02 11:05:32;;;;;;;;;;;;;;;;;;4988327;28;20409;-92
2023/09/02 11:07:58;;;;;;;;;;;;;;;;;;4977604;28;19918;-92
2023/09/02 11:10:24;;;;;;;;;;;;;;;;;;4978946;28;20278;-91
2023/09/02 11:12:50;;;;;;;;;;;;;;;;;;4981356;28;19924;-90
2023/09/02 11:15:16;;;;;;;;;;;;;;;;;;4976291;28;19957;-92
2023/09/02 11:17:42;;;;;;;;;;;;;;;;;;4972648;28;19913;-91
2023/09/02 11:20:09;;;;;;;;;;;;;;;;;;4976956;28;19961;-90
2023/09/02 11:22:34;;;;;;;;;;;;;;;;;;4975938;28;20131;-91
2023/09/02 11:25:00;;;;;;;;;;;;;;;;;;4972724;28;20002;-90
2023/09/02 11:27:26;;;;;;;;;;;;;;;;;;4983045;28;20369;-91
2023/09/02 11:30:15;;;;;;;;;;;;;;;;;;4983017;28;19978;-90
2023/09/02 11:32:43;;;;;;;;;;;;;;;;;;4981366;28;19950;-91
2023/09/02 11:35:09;;;;;;;;;;;;;;;;;;4981124;28;19917;-94
2023/09/02 11:37:35;;;;;;;;;;;;;;;;;;4989287;28;19921;-94
2023/09/02 11:40:10;;;;;;;;;;;;;;;;;;5009199;28;20013;-95
2023/09/02 11:42:53;;;;;;;;;;;;;;;;;;4993033;28;19925;-94
2023/09/02 11:45:40;;;;;;;;;;;;;;;;;;4989103;28;19918;-94
2023/09/02 11:48:09;;;;;;;;;;;;;;;;;;4985663;28;20429;-94
2023/09/02 11:50:35;;;;;;;;;;;;;;;;;;4989113;28;19914;-93
2023/09/02 11:53:01;;;;;;;;;;;;;;;;;;4992272;28;20316;-96
2023/09/02 11:55:42;;;;;;;;;;;;;;;;;;4976548;28;19918;-92
2023/09/02 11:58:21;;;;;;;;;;;;;;;;;;4979146;28;20040;-95
2023/09/02 12:00:47;;;;;;;;;;;;;;;;;;4981378;28;19922;-94
2023/09/02 12:03:12;;;;;;;;;;;;;;;;;;4979379;28;19922;-92
2023/09/02 12:05:41;;;;;;;;;;;;;;;;;;4978229;28;19914;-96
2023/09/02 12:08:07;;;;;;;;;;;;;;;;;;4981932;28;19924;-95
2023/09/02 12:10:33;;;;;;;;;;;;;;;;;;4977726;28;20426;-92
2023/09/02 12:13:05;;;;;;;;;;;;;;;;;;4980365;28;19929;-96
2023/09/02 12:15:34;;;;;;;;;;;;;;;;;;4981805;28;19917;-93
2023/09/02 12:18:00;;;;;;;;;;;;;;;;;;4982074;28;20380;-95
2023/09/02 12:20:26;;;;;;;;;;;;;;;;;;4980491;28;19926;-95
2023/09/02 12:22:52;;;;;;;;;;;;;;;;;;4979135;28;19918;-95
2023/09/02 12:25:21;;;;;;;;;;;;;;;;;;4981274;28;20255;-95
2023/09/02 12:27:49;;;;;;;;;;;;;;;;;;4989718;28;20026;-96
2023/09/02 12:30:18;;;;;;;;;;;;;;;;;;4984320;28;19921;-93
2023/09/02 12:32:44;;;;;;;;;;;;;;;;;;4983677;28;19936;-94
2023/09/02 12:35:09;;;;;;;;;;;;;;;;;;4983691;28;19914;-95
2023/09/02 12:37:36;;;;;;;;;;;;;;;;;;4989350;28;19928;-94
2023/09/02 12:40:08;;;;;;;;;;;;;;;;;;4984287;28;19924;-96
2023/09/02 12:42:34;;;;;;;;;;;;;;;;;;4978916;28;19921;-95
2023/09/02 12:45:00;;;;;;;;;;;;;;;;;;4981234;28;19913;-91
2023/09/02 12:47:32;;;;;;;;;;;;;;;;;;4975163;28;19913;-90
2023/09/02 12:50:00;;;;;;;;;;;;;;;;;;4986686;28;20285;-90
2023/09/02 12:52:27;;;;;;;;;;;;;;;;;;4973714;28;19987;-90
2023/09/02 12:54:54;;;;;;;;;;;;;;;;;;4963460;28;19914;-89
2023/09/02 12:57:20;;;;;;;;;;;;;;;;;;4970915;28;19925;-92
2023/09/02 12:59:46;;;;;;;;;;;;;;;;;;4974048;28;20003;-90
2023/09/02 13:02:12;;;;;;;;;;;;;;;;;;4972387;28;19914;-91
2023/09/02 13:04:38;;;;;;;;;;;;;;;;;;4973356;28;19950;-91
2023/09/02 13:07:03;;;;;;;;;;;;;;;;;;4975511;28;19953;-91
2023/09/02 13:09:30;;;;;;;;;;;;;;;;;;4974746;28;19925;-91
2023/09/02 13:12:02;;;;;;;;;;;;;;;;;;4972687;28;19980;-91
2023/09/02 13:14:28;;;;;;;;;;;;;;;;;;4973206;28;19921;-91
2023/09/02 13:16:54;;;;;;;;;;;;;;;;;;4974720;28;19925;-90
2023/09/02 13:19:20;;;;;;;;;;;;;;;;;;4970438;28;19914;-91
2023/09/02 13:21:46;;;;;;;;;;;;;;;;;;4969696;28;19964;-92
2023/09/02 13:24:16;;;;;;;;;;;;;;;;;;4970262;28;20334;-90
2023/09/02 13:26:42;;;;;;;;;;;;;;;;;;4975108;28;20427;-91
2023/09/02 13:29:11;;;;;;;;;;;;;;;;;;4970826;28;19982;-90
2023/09/02 13:31:37;;;;;;;;;;;;;;;;;;4975427;28;19925;-92
2023/09/02 13:34:03;;;;;;;;;;;;;;;;;;4974818;28;19922;-90
2023/09/02 13:36:28;;;;;;;;;;;;;;;;;;4972140;28;19960;-90
2023/09/02 13:38:54;;;;;;;;;;;;;;;;;;4973511;28;19940;-91
2023/09/02 13:41:20;;;;;;;;;;;;;;;;;;4966138;28;19949;-90
2023/09/02 13:43:47;;;;;;;;;;;;;;;;;;4970443;28;19928;-91
2023/09/02 13:46:13;;;;;;;;;;;;;;;;;;4962622;28;20015;-90
2023/09/02 13:48:39;;;;;;;;;;;;;;;;;;4975444;28;20966;-90
2023/09/02 13:51:05;;;;;;;;;;;;;;;;;;4973914;28;19925;-90
2023/09/02 13:53:31;;;;;;;;;;;;;;;;;;4970444;28;19932;-91
2023/09/02 13:55:57;;;;;;;;;;;;;;;;;;4991417;28;20312;-91
2023/09/02 13:58:32;;;;;;;;;;;;;;;;;;4975565;28;20373;-90
2023/09/02 14:00:58;;;;;;;;;;;;;;;;;;4971013;28;19926;-91
2023/09/02 14:03:24;;;;;;;;;;;;;;;;;;4969856;28;19953;-90
2023/09/02 14:05:50;;;;;;;;;;;;;;;;;;4983779;28;19917;-89
2023/09/02 14:08:19;;;;;;;;;;;;;;;;;;4988547;28;20094;-89
2023/09/02 14:10:51;;;;;;;;;;;;;;;;;;4974199;28;20055;-90
2023/09/02 14:13:21;;;;;;;;;;;;;;;;;;4974165;28;19928;-89
2023/09/02 14:15:47;;;;;;;;;;;;;;;;;;4981662;28;19948;-89
2023/09/02 14:18:12;;;;;;;;;;;;;;;;;;4975949;28;19918;-90
2023/09/02 14:20:38;;;;;;;;;;;;;;;;;;4975799;28;20020;-90
2023/09/02 14:23:04;;;;;;;;;;;;;;;;;;4993936;28;19918;-90
2023/09/02 14:25:30;;;;;;;;;;;;;;;;;;4973435;28;19914;-89
2023/09/02 14:27:56;;;;;;;;;;;;;;;;;;4972524;28;20500;-90
2023/09/02 14:30:23;;;;;;;;;;;;;;;;;;4971566;28;19925;-89
2023/09/02 14:32:49;;;;;;;;;;;;;;;;;;4970383;28;19925;-89
2023/09/02 14:35:15;;;;;;;;;;;;;;;;;;4968557;28;19949;-91
2023/09/02 14:37:40;;;;;;;;;;;;;;;;;;4976295;28;20281;-89
2023/09/02 14:40:06;;;;;;;;;;;;;;;;;;4977856;28;19926;-89
2023/09/02 14:42:33;;;;;;;;;;;;;;;;;;4972358;28;19928;-91
2023/09/02 14:45:02;;;;;;;;;;;;;;;;;;4971447;28;20305;-90
2023/09/02 14:47:28;;;;;;;;;;;;;;;;;;4969082;28;19921;-90
2023/09/02 14:49:57;;;;;;;;;;;;;;;;;;4963438;28;19917;-89
2023/09/02 14:52:23;;;;;;;;;;;;;;;;;;4989094;28;19922;-89
2023/09/02 14:54:49;;;;;;;;;;;;;;;;;;4965326;28;19914;-90
2023/09/02 14:57:14;;;;;;;;;;;;;;;;;;4970314;28;20313;-90
2023/09/02 14:59:41;;;;;;;;;;;;;;;;;;4971501;28;20270;-90
2023/09/02 15:02:07;;;;;;;;;;;;;;;;;;4978091;28;19921;-91
2023/09/02 15:04:32;;;;;;;;;;;;;;;;;;4972777;28;19914;-94
2023/09/02 15:06:58;;;;;;;;;;;;;;;;;;4979382;28;19917;-94
2023/09/02 15:09:24;;;;;;;;;;;;;;;;;;4974283;28;19914;-93
2023/09/02 15:11:50;;;;;;;;;;;;;;;;;;4971291;28;19921;-95
2023/09/02 15:14:16;;;;;;;;;;;;;;;;;;4976551;28;19918;-94
2023/09/02 15:16:42;;;;;;;;;;;;;;;;;;4973549;28;19920;-90
2023/09/02 15:19:08;;;;;;;;;;;;;;;;;;4966740;28;19918;-91
2023/09/02 15:21:34;;;;;;;;;;;;;;;;;;4981307;28;19917;-90
2023/09/02 15:24:00;;;;;;;;;;;;;;;;;;4977713;28;19914;-91
2023/09/02 15:26:26;;;;;;;;;;;;;;;;;;4977485;28;19953;-91
2023/09/02 15:28:52;;;;;;;;;;;;;;;;;;4978402;28;20008;-91
2023/09/02 15:31:18;;;;;;;;;;;;;;;;;;4975613;28;19915;-91
2023/09/02 15:33:47;;;;;;;;;;;;;;;;;;4982105;28;19924;-90
2023/09/02 15:36:13;;;;;;;;;;;;;;;;;;4968496;28;19925;-91
2023/09/02 15:38:39;;;;;;;;;;;;;;;;;;4974132;28;19922;-90
2023/09/02 15:41:05;;;;;;;;;;;;;;;;;;4974459;28;19928;-91
2023/09/02 15:43:31;;;;;;;;;;;;;;;;;;4974748;28;19913;-91
2023/09/02 15:45:57;;;;;;;;;;;;;;;;;;4980932;28;19928;-91
2023/09/02 15:48:23;;;;;;;;;;;;;;;;;;4973830;28;19925;-91
2023/09/02 15:50:52;;;;;;;;;;;;;;;;;;4976505;28;19925;-91
2023/09/02 15:53:17;;;;;;;;;;;;;;;;;;4972402;28;19925;-90
2023/09/02 15:55:43;;;;;;;;;;;;;;;;;;4971394;28;19921;-90
2023/09/02 15:58:09;;;;;;;;;;;;;;;;;;4976352;28;19933;-90
2023/09/02 16:00:35;;;;;;;;;;;;;;;;;;4979542;28;19924;-91
2023/09/02 16:03:01;;;;;;;;;;;;;;;;;;4975490;28;20027;-90
2023/09/02 16:05:28;;;;;;;;;;;;;;;;;;4970100;28;20016;-90
2023/09/02 16:07:54;;;;;;;;;;;;;;;;;;4979767;28;19913;-90
2023/09/02 16:10:20;;;;;;;;;;;;;;;;;;4975762;28;19968;-90
2023/09/02 16:12:46;;;;;;;;;;;;;;;;;;4974191;28;20350;-90
2023/09/02 16:15:13;;;;;;;;;;;;;;;;;;4972316;28;19940;-90
2023/09/02 16:17:39;;;;;;;;;;;;;;;;;;4973525;28;19914;-89
2023/09/02 16:20:05;;;;;;;;;;;;;;;;;;4976590;28;20008;-91
2023/09/02 16:22:31;;;;;;;;;;;;;;;;;;4980407;28;20444;-90
2023/09/02 16:24:57;;;;;;;;;;;;;;;;;;4976444;28;20012;-90
2023/09/02 16:27:23;;;;;;;;;;;;;;;;;;4971941;28;19918;-90
2023/09/02 16:29:49;;;;;;;;;;;;;;;;;;4974417;28;19918;-89
2023/09/02 16:32:15;;;;;;;;;;;;;;;;;;4977421;28;20848;-89
2023/09/02 16:34:41;;;;;;;;;;;;;;;;;;4985210;28;19914;-89
2023/09/02 16:37:07;;;;;;;;;;;;;;;;;;4966108;28;19973;-89
2023/09/02 16:39:33;;;;;;;;;;;;;;;;;;4978214;28;19918;-89
2023/09/02 16:41:59;;;;;;;;;;;;;;;;;;4979063;28;19939;-89
2023/09/02 16:44:25;;;;;;;;;;;;;;;;;;4974559;28;20382;-89
2023/09/02 16:46:51;;;;;;;;;;;;;;;;;;4987898;28;19920;-90